sensor_id;sensor_type;location;lat;lon;timestamp;temperature;humidity
74458;SHT31;62896;51.032;3.712;2023-08-17T00:01:38;20.2;75
74458;SHT31;62896;51.032;3.712;2023-08-17T00:04:58;20.2;76
74458;SHT31;62896;51.032;3.712;2023-08-17T00:08:18;20.2;76
74458;SHT31;62896;51.032;3.712;2023-08-17T00:11:38;20.2;76
74458;SHT31;62896;51.032;3.712;2023-08-17T00:14:58;20.1;76
74458;SHT31;62896;51.032;3.712;2023-08-17T00:18:18;20.1;76
74458;SHT31;62896;51.032;3.712;2023-08-17T00:21:38;20.1;76
74458;SHT31;62896;51.032;3.712;2023-08-17T00:24:58;20;77
74458;SHT31;62896;51.032;3.712;2023-08-17T00:28:18;20;77
74458;SHT31;62896;51.032;3.712;2023-08-17T00:31:38;20;77
74458;SHT31;62896;51.032;3.712;2023-08-17T00:34:58;19.9;79
74458;SHT31;62896;51.032;3.712;2023-08-17T00:38:18;19.9;79
74458;SHT31;62896;51.032;3.712;2023-08-17T00:41:38;19.9;79
74458;SHT31;62896;51.032;3.712;2023-08-17T00:44:58;19.7;80
74458;SHT31;62896;51.032;3.712;2023-08-17T00:48:18;19.7;80
74458;SHT31;62896;51.032;3.712;2023-08-17T00:51:38;19.7;80
74458;SHT31;62896;51.032;3.712;2023-08-17T00:54:58;19.5;81
74458;SHT31;62896;51.032;3.712;2023-08-17T00:58:18;19.5;81
74458;SHT31;62896;51.032;3.712;2023-08-17T01:01:38;19.5;81
74458;SHT31;62896;51.032;3.712;2023-08-17T01:04:58;19.2;83
74458;SHT31;62896;51.032;3.712;2023-08-17T01:08:18;19.2;83
74458;SHT31;62896;51.032;3.712;2023-08-17T01:11:39;19.2;83
74458;SHT31;62896;51.032;3.712;2023-08-17T01:15:01;19;83
74458;SHT31;62896;51.032;3.712;2023-08-17T01:18:20;19;83
74458;SHT31;62896;51.032;3.712;2023-08-17T01:21:41;19;83
74458;SHT31;62896;51.032;3.712;2023-08-17T01:24:58;18.8;83
74458;SHT31;62896;51.032;3.712;2023-08-17T01:28:18;18.8;83
74458;SHT31;62896;51.032;3.712;2023-08-17T01:31:40;18.8;83
74458;SHT31;62896;51.032;3.712;2023-08-17T01:34:59;18.8;83
74458;SHT31;62896;51.032;3.712;2023-08-17T01:38:18;18.8;83
74458;SHT31;62896;51.032;3.712;2023-08-17T01:41:38;18.8;83
74458;SHT31;62896;51.032;3.712;2023-08-17T01:44:58;18.8;83
74458;SHT31;62896;51.032;3.712;2023-08-17T01:48:18;18.8;83
74458;SHT31;62896;51.032;3.712;2023-08-17T01:51:38;18.8;83
74458;SHT31;62896;51.032;3.712;2023-08-17T01:54:58;18.8;82
74458;SHT31;62896;51.032;3.712;2023-08-17T01:58:18;18.8;82
74458;SHT31;62896;51.032;3.712;2023-08-17T02:01:38;18.8;82
74458;SHT31;62896;51.032;3.712;2023-08-17T02:04:58;18.8;82
74458;SHT31;62896;51.032;3.712;2023-08-17T02:08:18;18.8;82
74458;SHT31;62896;51.032;3.712;2023-08-17T02:11:38;18.8;82
74458;SHT31;62896;51.032;3.712;2023-08-17T02:14:58;18.8;82
74458;SHT31;62896;51.032;3.712;2023-08-17T02:18:18;18.8;82
74458;SHT31;62896;51.032;3.712;2023-08-17T02:21:38;18.8;82
74458;SHT31;62896;51.032;3.712;2023-08-17T02:24:58;18.8;82
74458;SHT31;62896;51.032;3.712;2023-08-17T02:28:18;18.8;82
74458;SHT31;62896;51.032;3.712;2023-08-17T02:31:38;18.8;82
74458;SHT31;62896;51.032;3.712;2023-08-17T02:34:58;18.8;83
74458;SHT31;62896;51.032;3.712;2023-08-17T02:38:18;18.8;83
74458;SHT31;62896;51.032;3.712;2023-08-17T02:41:38;18.8;83
74458;SHT31;62896;51.032;3.712;2023-08-17T02:44:58;18.8;82
74458;SHT31;62896;51.032;3.712;2023-08-17T02:48:18;18.8;82
74458;SHT31;62896;51.032;3.712;2023-08-17T02:51:38;18.8;82
74458;SHT31;62896;51.032;3.712;2023-08-17T02:54:58;18.7;82
74458;SHT31;62896;51.032;3.712;2023-08-17T02:58:18;18.7;82
74458;SHT31;62896;51.032;3.712;2023-08-17T03:01:38;18.7;82
74458;SHT31;62896;51.032;3.712;2023-08-17T03:04:58;18.7;82
74458;SHT31;62896;51.032;3.712;2023-08-17T03:08:18;18.7;82
74458;SHT31;62896;51.032;3.712;2023-08-17T03:11:38;18.7;82
74458;SHT31;62896;51.032;3.712;2023-08-17T03:14:58;18.5;82
74458;SHT31;62896;51.032;3.712;2023-08-17T03:18:18;18.5;82
74458;SHT31;62896;51.032;3.712;2023-08-17T03:21:38;18.5;82
74458;SHT31;62896;51.032;3.712;2023-08-17T03:24:58;18.4;83
74458;SHT31;62896;51.032;3.712;2023-08-17T03:28:18;18.4;83
74458;SHT31;62896;51.032;3.712;2023-08-17T03:31:38;18.4;83
74458;SHT31;62896;51.032;3.712;2023-08-17T03:34:58;18.2;83
74458;SHT31;62896;51.032;3.712;2023-08-17T03:38:18;18.2;83
74458;SHT31;62896;51.032;3.712;2023-08-17T03:41:38;18.2;83
74458;SHT31;62896;51.032;3.712;2023-08-17T03:44:58;18.1;84
74458;SHT31;62896;51.032;3.712;2023-08-17T03:48:18;18.1;84
74458;SHT31;62896;51.032;3.712;2023-08-17T03:51:38;18.1;84
74458;SHT31;62896;51.032;3.712;2023-08-17T03:54:58;18;84
74458;SHT31;62896;51.032;3.712;2023-08-17T03:58:18;18;84
74458;SHT31;62896;51.032;3.712;2023-08-17T04:01:38;18;84
74458;SHT31;62896;51.032;3.712;2023-08-17T04:04:58;17.8;84
74458;SHT31;62896;51.032;3.712;2023-08-17T04:08:18;17.8;84
74458;SHT31;62896;51.032;3.712;2023-08-17T04:11:38;17.8;84
74458;SHT31;62896;51.032;3.712;2023-08-17T04:14:58;17.7;85
74458;SHT31;62896;51.032;3.712;2023-08-17T04:18:18;17.7;85
74458;SHT31;62896;51.032;3.712;2023-08-17T04:21:38;17.7;85
74458;SHT31;62896;51.032;3.712;2023-08-17T04:24:58;17.7;84
74458;SHT31;62896;51.032;3.712;2023-08-17T04:28:18;17.7;84
74458;SHT31;62896;51.032;3.712;2023-08-17T04:31:38;17.7;84
74458;SHT31;62896;51.032;3.712;2023-08-17T04:34:58;17.7;84
74458;SHT31;62896;51.032;3.712;2023-08-17T04:38:18;17.7;84
74458;SHT31;62896;51.032;3.712;2023-08-17T04:41:38;17.7;84
74458;SHT31;62896;51.032;3.712;2023-08-17T04:44:58;17.6;84
74458;SHT31;62896;51.032;3.712;2023-08-17T04:48:18;17.6;84
74458;SHT31;62896;51.032;3.712;2023-08-17T04:51:38;17.6;84
74458;SHT31;62896;51.032;3.712;2023-08-17T04:54:58;17.6;84
74458;SHT31;62896;51.032;3.712;2023-08-17T04:58:18;17.6;84
74458;SHT31;62896;51.032;3.712;2023-08-17T05:01:38;17.6;84
74458;SHT31;62896;51.032;3.712;2023-08-17T05:04:58;17.5;84
74458;SHT31;62896;51.032;3.712;2023-08-17T05:08:18;17.5;84
74458;SHT31;62896;51.032;3.712;2023-08-17T05:11:38;17.5;84
74458;SHT31;62896;51.032;3.712;2023-08-17T05:14:58;17.6;84
74458;SHT31;62896;51.032;3.712;2023-08-17T05:18:18;17.6;84
74458;SHT31;62896;51.032;3.712;2023-08-17T05:21:38;17.6;84
74458;SHT31;62896;51.032;3.712;2023-08-17T05:24:58;17.6;83
74458;SHT31;62896;51.032;3.712;2023-08-17T05:28:18;17.6;83
74458;SHT31;62896;51.032;3.712;2023-08-17T05:31:38;17.6;83
74458;SHT31;62896;51.032;3.712;2023-08-17T05:34:58;17.7;83
74458;SHT31;62896;51.032;3.712;2023-08-17T05:38:18;17.7;83
74458;SHT31;62896;51.032;3.712;2023-08-17T05:41:38;17.7;83
74458;SHT31;62896;51.032;3.712;2023-08-17T05:44:58;17.8;82
74458;SHT31;62896;51.032;3.712;2023-08-17T05:48:19;17.8;82
74458;SHT31;62896;51.032;3.712;2023-08-17T05:51:38;17.8;82
74458;SHT31;62896;51.032;3.712;2023-08-17T05:54:58;17.8;82
74458;SHT31;62896;51.032;3.712;2023-08-17T05:58:18;17.8;82
74458;SHT31;62896;51.032;3.712;2023-08-17T06:01:39;17.8;82
74458;SHT31;62896;51.032;3.712;2023-08-17T06:04:58;17.9;81
74458;SHT31;62896;51.032;3.712;2023-08-17T06:08:18;17.9;81
74458;SHT31;62896;51.032;3.712;2023-08-17T06:11:38;17.9;81
74458;SHT31;62896;51.032;3.712;2023-08-17T06:14:58;18;81
74458;SHT31;62896;51.032;3.712;2023-08-17T06:18:18;18;81
74458;SHT31;62896;51.032;3.712;2023-08-17T06:21:38;18;81
74458;SHT31;62896;51.032;3.712;2023-08-17T06:24:58;18.2;80
74458;SHT31;62896;51.032;3.712;2023-08-17T06:28:18;18.2;80
74458;SHT31;62896;51.032;3.712;2023-08-17T06:31:38;18.2;80
74458;SHT31;62896;51.032;3.712;2023-08-17T06:34:58;18.3;79
74458;SHT31;62896;51.032;3.712;2023-08-17T06:38:18;18.3;79
74458;SHT31;62896;51.032;3.712;2023-08-17T06:41:38;18.3;79
74458;SHT31;62896;51.032;3.712;2023-08-17T06:44:58;18.4;79
74458;SHT31;62896;51.032;3.712;2023-08-17T06:48:18;18.4;79
74458;SHT31;62896;51.032;3.712;2023-08-17T06:51:38;18.4;79
74458;SHT31;62896;51.032;3.712;2023-08-17T06:54:58;18.5;78
74458;SHT31;62896;51.032;3.712;2023-08-17T06:58:18;18.5;78
74458;SHT31;62896;51.032;3.712;2023-08-17T07:01:38;18.5;78
74458;SHT31;62896;51.032;3.712;2023-08-17T07:04:58;18.6;78
74458;SHT31;62896;51.032;3.712;2023-08-17T07:08:18;18.6;78
74458;SHT31;62896;51.032;3.712;2023-08-17T07:11:38;18.6;78
74458;SHT31;62896;51.032;3.712;2023-08-17T07:14:58;18.6;78
74458;SHT31;62896;51.032;3.712;2023-08-17T07:18:18;18.6;78
74458;SHT31;62896;51.032;3.712;2023-08-17T07:21:38;18.6;78
74458;SHT31;62896;51.032;3.712;2023-08-17T07:24:58;18.6;77
74458;SHT31;62896;51.032;3.712;2023-08-17T07:28:18;18.6;77
74458;SHT31;62896;51.032;3.712;2023-08-17T07:31:38;18.6;77
74458;SHT31;62896;51.032;3.712;2023-08-17T07:34:58;18.9;77
74458;SHT31;62896;51.032;3.712;2023-08-17T07:38:18;18.9;77
74458;SHT31;62896;51.032;3.712;2023-08-17T07:41:38;18.9;77
74458;SHT31;62896;51.032;3.712;2023-08-17T07:44:58;18.9;77
74458;SHT31;62896;51.032;3.712;2023-08-17T07:48:18;18.9;77
74458;SHT31;62896;51.032;3.712;2023-08-17T07:51:38;18.9;77
74458;SHT31;62896;51.032;3.712;2023-08-17T07:54:58;19;77
74458;SHT31;62896;51.032;3.712;2023-08-17T07:58:18;19;77
74458;SHT31;62896;51.032;3.712;2023-08-17T08:01:38;19;77
74458;SHT31;62896;51.032;3.712;2023-08-17T08:04:58;19.1;77
74458;SHT31;62896;51.032;3.712;2023-08-17T08:08:18;19.1;77
74458;SHT31;62896;51.032;3.712;2023-08-17T08:11:38;19.1;77
74458;SHT31;62896;51.032;3.712;2023-08-17T08:14:58;19.4;76
74458;SHT31;62896;51.032;3.712;2023-08-17T08:18:18;19.4;76
74458;SHT31;62896;51.032;3.712;2023-08-17T08:21:38;19.4;76
74458;SHT31;62896;51.032;3.712;2023-08-17T08:24:58;19.5;75
74458;SHT31;62896;51.032;3.712;2023-08-17T08:28:18;19.5;75
74458;SHT31;62896;51.032;3.712;2023-08-17T08:31:38;19.5;75
74458;SHT31;62896;51.032;3.712;2023-08-17T08:34:58;19.7;75
74458;SHT31;62896;51.032;3.712;2023-08-17T08:38:18;19.7;75
74458;SHT31;62896;51.032;3.712;2023-08-17T08:41:38;19.7;75
74458;SHT31;62896;51.032;3.712;2023-08-17T08:44:58;19.7;75
74458;SHT31;62896;51.032;3.712;2023-08-17T08:48:19;19.7;75
74458;SHT31;62896;51.032;3.712;2023-08-17T08:51:41;19.7;75
74458;SHT31;62896;51.032;3.712;2023-08-17T08:54:58;19.8;75
74458;SHT31;62896;51.032;3.712;2023-08-17T08:58:18;19.8;75
74458;SHT31;62896;51.032;3.712;2023-08-17T09:01:38;19.8;75
74458;SHT31;62896;51.032;3.712;2023-08-17T09:04:58;20.1;75
74458;SHT31;62896;51.032;3.712;2023-08-17T09:08:20;20.1;75
74458;SHT31;62896;51.032;3.712;2023-08-17T09:11:38;20.1;75
74458;SHT31;62896;51.032;3.712;2023-08-17T09:14:58;20.3;75
74458;SHT31;62896;51.032;3.712;2023-08-17T09:18:18;20.3;75
74458;SHT31;62896;51.032;3.712;2023-08-17T09:21:38;20.3;75
74458;SHT31;62896;51.032;3.712;2023-08-17T09:24:58;20.8;74
74458;SHT31;62896;51.032;3.712;2023-08-17T09:28:19;20.8;74
74458;SHT31;62896;51.032;3.712;2023-08-17T09:31:38;20.8;74
74458;SHT31;62896;51.032;3.712;2023-08-17T09:35:00;21.5;72
74458;SHT31;62896;51.032;3.712;2023-08-17T09:38:18;21.5;72
74458;SHT31;62896;51.032;3.712;2023-08-17T09:41:38;21.5;72
74458;SHT31;62896;51.032;3.712;2023-08-17T09:44:58;21.5;72
74458;SHT31;62896;51.032;3.712;2023-08-17T09:48:19;21.5;72
74458;SHT31;62896;51.032;3.712;2023-08-17T09:51:41;21.5;72
74458;SHT31;62896;51.032;3.712;2023-08-17T09:54:58;21.9;71
74458;SHT31;62896;51.032;3.712;2023-08-17T09:58:18;21.9;71
74458;SHT31;62896;51.032;3.712;2023-08-17T10:01:38;21.9;71
74458;SHT31;62896;51.032;3.712;2023-08-17T10:04:58;22.2;70
74458;SHT31;62896;51.032;3.712;2023-08-17T10:08:19;22.2;70
74458;SHT31;62896;51.032;3.712;2023-08-17T10:11:38;22.2;70
74458;SHT31;62896;51.032;3.712;2023-08-17T10:14:59;22.4;70
74458;SHT31;62896;51.032;3.712;2023-08-17T10:18:21;22.4;70
74458;SHT31;62896;51.032;3.712;2023-08-17T10:21:42;22.4;70
74458;SHT31;62896;51.032;3.712;2023-08-17T10:24:59;22.7;69
74458;SHT31;62896;51.032;3.712;2023-08-17T10:28:19;22.7;69
74458;SHT31;62896;51.032;3.712;2023-08-17T10:31:38;22.7;69
74458;SHT31;62896;51.032;3.712;2023-08-17T10:34:58;23.1;68
74458;SHT31;62896;51.032;3.712;2023-08-17T10:38:18;23.1;68
74458;SHT31;62896;51.032;3.712;2023-08-17T10:41:45;23.1;68
74458;SHT31;62896;51.032;3.712;2023-08-17T10:44:59;22.8;68
74458;SHT31;62896;51.032;3.712;2023-08-17T10:48:26;22.8;68
74458;SHT31;62896;51.032;3.712;2023-08-17T10:51:38;22.8;68
74458;SHT31;62896;51.032;3.712;2023-08-17T10:54:59;23;68
74458;SHT31;62896;51.032;3.712;2023-08-17T10:58:19;23;68
74458;SHT31;62896;51.032;3.712;2023-08-17T11:01:39;23;68
74458;SHT31;62896;51.032;3.712;2023-08-17T11:04:59;23.3;68
74458;SHT31;62896;51.032;3.712;2023-08-17T11:08:20;23.3;68
74458;SHT31;62896;51.032;3.712;2023-08-17T11:11:38;23.3;68
74458;SHT31;62896;51.032;3.712;2023-08-17T11:14:59;22.9;69
74458;SHT31;62896;51.032;3.712;2023-08-17T11:18:19;22.9;69
74458;SHT31;62896;51.032;3.712;2023-08-17T11:21:39;22.9;69
74458;SHT31;62896;51.032;3.712;2023-08-17T11:24:59;22.8;70
74458;SHT31;62896;51.032;3.712;2023-08-17T11:28:19;22.8;70
74458;SHT31;62896;51.032;3.712;2023-08-17T11:31:39;22.8;70
74458;SHT31;62896;51.032;3.712;2023-08-17T11:34:59;23.3;69
74458;SHT31;62896;51.032;3.712;2023-08-17T11:38:19;23.3;69
74458;SHT31;62896;51.032;3.712;2023-08-17T11:41:39;23.3;69
74458;SHT31;62896;51.032;3.712;2023-08-17T11:44:59;23.3;69
74458;SHT31;62896;51.032;3.712;2023-08-17T11:48:19;23.3;69
74458;SHT31;62896;51.032;3.712;2023-08-17T11:51:39;23.3;69
74458;SHT31;62896;51.032;3.712;2023-08-17T11:54:59;23;69
74458;SHT31;62896;51.032;3.712;2023-08-17T11:58:19;23;69
74458;SHT31;62896;51.032;3.712;2023-08-17T12:01:39;23;69
74458;SHT31;62896;51.032;3.712;2023-08-17T12:04:59;22.8;70
74458;SHT31;62896;51.032;3.712;2023-08-17T12:08:19;22.8;70
74458;SHT31;62896;51.032;3.712;2023-08-17T12:11:39;22.8;70
74458;SHT31;62896;51.032;3.712;2023-08-17T12:14:59;22.6;70
74458;SHT31;62896;51.032;3.712;2023-08-17T12:18:19;22.6;70
74458;SHT31;62896;51.032;3.712;2023-08-17T12:21:40;22.6;70
74458;SHT31;62896;51.032;3.712;2023-08-17T12:24:59;22.6;71
74458;SHT31;62896;51.032;3.712;2023-08-17T12:28:19;22.6;71
74458;SHT31;62896;51.032;3.712;2023-08-17T12:31:39;22.6;71
74458;SHT31;62896;51.032;3.712;2023-08-17T12:34:59;22.5;71
74458;SHT31;62896;51.032;3.712;2023-08-17T12:38:19;22.5;71
74458;SHT31;62896;51.032;3.712;2023-08-17T12:41:39;22.5;71
74458;SHT31;62896;51.032;3.712;2023-08-17T12:44:59;22.3;72
74458;SHT31;62896;51.032;3.712;2023-08-17T12:48:19;22.3;72
74458;SHT31;62896;51.032;3.712;2023-08-17T12:51:39;22.3;72
74458;SHT31;62896;51.032;3.712;2023-08-17T12:54:59;22.3;72
74458;SHT31;62896;51.032;3.712;2023-08-17T12:58:19;22.3;72
74458;SHT31;62896;51.032;3.712;2023-08-17T13:01:39;22.3;72
74458;SHT31;62896;51.032;3.712;2023-08-17T13:04:59;22.2;73
74458;SHT31;62896;51.032;3.712;2023-08-17T13:08:19;22.2;73
74458;SHT31;62896;51.032;3.712;2023-08-17T13:11:39;22.2;73
74458;SHT31;62896;51.032;3.712;2023-08-17T13:14:59;22.3;72
74458;SHT31;62896;51.032;3.712;2023-08-17T13:18:19;22.3;72
74458;SHT31;62896;51.032;3.712;2023-08-17T13:21:39;22.3;72
74458;SHT31;62896;51.032;3.712;2023-08-17T13:24:59;22.4;72
74458;SHT31;62896;51.032;3.712;2023-08-17T13:28:19;22.4;72
74458;SHT31;62896;51.032;3.712;2023-08-17T13:31:39;22.4;72
74458;SHT31;62896;51.032;3.712;2023-08-17T13:34:59;22.3;73
74458;SHT31;62896;51.032;3.712;2023-08-17T13:38:19;22.3;73
74458;SHT31;62896;51.032;3.712;2023-08-17T13:41:39;22.3;73
74458;SHT31;62896;51.032;3.712;2023-08-17T13:44:59;22.3;73
74458;SHT31;62896;51.032;3.712;2023-08-17T13:48:19;22.3;73
74458;SHT31;62896;51.032;3.712;2023-08-17T13:51:39;22.3;73
74458;SHT31;62896;51.032;3.712;2023-08-17T13:54:59;22.5;72
74458;SHT31;62896;51.032;3.712;2023-08-17T13:58:19;22.5;72
74458;SHT31;62896;51.032;3.712;2023-08-17T14:01:39;22.5;72
74458;SHT31;62896;51.032;3.712;2023-08-17T14:04:59;23.1;70
74458;SHT31;62896;51.032;3.712;2023-08-17T14:08:19;23.1;70
74458;SHT31;62896;51.032;3.712;2023-08-17T14:11:39;23.1;70
74458;SHT31;62896;51.032;3.712;2023-08-17T14:14:59;22.9;71
74458;SHT31;62896;51.032;3.712;2023-08-17T14:18:19;22.9;71
74458;SHT31;62896;51.032;3.712;2023-08-17T14:21:39;22.9;71
74458;SHT31;62896;51.032;3.712;2023-08-17T14:24:59;22.7;72
74458;SHT31;62896;51.032;3.712;2023-08-17T14:28:19;22.7;72
74458;SHT31;62896;51.032;3.712;2023-08-17T14:31:39;22.7;72
74458;SHT31;62896;51.032;3.712;2023-08-17T14:34:59;22.4;73
74458;SHT31;62896;51.032;3.712;2023-08-17T14:38:19;22.4;73
74458;SHT31;62896;51.032;3.712;2023-08-17T14:41:39;22.4;73
74458;SHT31;62896;51.032;3.712;2023-08-17T14:44:59;22.4;73
74458;SHT31;62896;51.032;3.712;2023-08-17T14:48:19;22.4;73
74458;SHT31;62896;51.032;3.712;2023-08-17T14:51:39;22.4;73
74458;SHT31;62896;51.032;3.712;2023-08-17T14:54:59;22.4;73
74458;SHT31;62896;51.032;3.712;2023-08-17T14:58:19;22.4;73
74458;SHT31;62896;51.032;3.712;2023-08-17T15:01:39;22.4;73
74458;SHT31;62896;51.032;3.712;2023-08-17T15:04:59;23.5;70
74458;SHT31;62896;51.032;3.712;2023-08-17T15:08:19;23.5;70
74458;SHT31;62896;51.032;3.712;2023-08-17T15:11:39;23.5;70
74458;SHT31;62896;51.032;3.712;2023-08-17T15:14:59;23.8;68
74458;SHT31;62896;51.032;3.712;2023-08-17T15:18:19;23.8;68
74458;SHT31;62896;51.032;3.712;2023-08-17T15:21:39;23.8;68
74458;SHT31;62896;51.032;3.712;2023-08-17T15:24:59;23.3;70
74458;SHT31;62896;51.032;3.712;2023-08-17T15:28:19;23.3;70
74458;SHT31;62896;51.032;3.712;2023-08-17T15:31:39;23.3;70
74458;SHT31;62896;51.032;3.712;2023-08-17T15:34:59;23.1;71
74458;SHT31;62896;51.032;3.712;2023-08-17T15:38:19;23.1;71
74458;SHT31;62896;51.032;3.712;2023-08-17T15:41:39;23.1;71
74458;SHT31;62896;51.032;3.712;2023-08-17T15:44:59;22.8;71
74458;SHT31;62896;51.032;3.712;2023-08-17T15:48:19;22.8;71
74458;SHT31;62896;51.032;3.712;2023-08-17T15:51:39;22.8;71
74458;SHT31;62896;51.032;3.712;2023-08-17T15:54:59;22.7;72
74458;SHT31;62896;51.032;3.712;2023-08-17T15:58:19;22.7;72
74458;SHT31;62896;51.032;3.712;2023-08-17T16:01:39;22.7;72
74458;SHT31;62896;51.032;3.712;2023-08-17T16:04:59;22.8;72
74458;SHT31;62896;51.032;3.712;2023-08-17T16:08:19;22.8;72
74458;SHT31;62896;51.032;3.712;2023-08-17T16:11:39;22.8;72
74458;SHT31;62896;51.032;3.712;2023-08-17T16:14:59;23;72
74458;SHT31;62896;51.032;3.712;2023-08-17T16:18:19;23;72
74458;SHT31;62896;51.032;3.712;2023-08-17T16:21:39;23;72
74458;SHT31;62896;51.032;3.712;2023-08-17T16:24:59;22.7;72
74458;SHT31;62896;51.032;3.712;2023-08-17T16:28:19;22.7;72
74458;SHT31;62896;51.032;3.712;2023-08-17T16:31:39;22.7;72
74458;SHT31;62896;51.032;3.712;2023-08-17T16:34:59;22.5;73
74458;SHT31;62896;51.032;3.712;2023-08-17T16:38:19;22.5;73
74458;SHT31;62896;51.032;3.712;2023-08-17T16:41:39;22.5;73
74458;SHT31;62896;51.032;3.712;2023-08-17T16:44:59;22.5;73
74458;SHT31;62896;51.032;3.712;2023-08-17T16:48:19;22.5;73
74458;SHT31;62896;51.032;3.712;2023-08-17T16:51:39;22.5;73
74458;SHT31;62896;51.032;3.712;2023-08-17T16:54:59;22.3;74
74458;SHT31;62896;51.032;3.712;2023-08-17T16:58:19;22.3;74
74458;SHT31;62896;51.032;3.712;2023-08-17T17:01:39;22.3;74
74458;SHT31;62896;51.032;3.712;2023-08-17T17:04:59;22.2;75
74458;SHT31;62896;51.032;3.712;2023-08-17T17:08:19;22.2;75
74458;SHT31;62896;51.032;3.712;2023-08-17T17:11:39;22.2;75
74458;SHT31;62896;51.032;3.712;2023-08-17T17:14:59;22;75
74458;SHT31;62896;51.032;3.712;2023-08-17T17:18:19;22;75
74458;SHT31;62896;51.032;3.712;2023-08-17T17:21:39;22;75
74458;SHT31;62896;51.032;3.712;2023-08-17T17:24:59;21.8;76
74458;SHT31;62896;51.032;3.712;2023-08-17T17:28:19;21.8;76
74458;SHT31;62896;51.032;3.712;2023-08-17T17:31:39;21.8;76
74458;SHT31;62896;51.032;3.712;2023-08-17T17:34:59;21.7;77
74458;SHT31;62896;51.032;3.712;2023-08-17T17:38:19;21.7;77
74458;SHT31;62896;51.032;3.712;2023-08-17T17:41:39;21.7;77
74458;SHT31;62896;51.032;3.712;2023-08-17T17:44:59;21.6;77
74458;SHT31;62896;51.032;3.712;2023-08-17T17:48:19;21.6;77
74458;SHT31;62896;51.032;3.712;2023-08-17T17:51:39;21.6;77
74458;SHT31;62896;51.032;3.712;2023-08-17T17:54:59;21.4;78
74458;SHT31;62896;51.032;3.712;2023-08-17T17:58:19;21.4;78
74458;SHT31;62896;51.032;3.712;2023-08-17T18:01:39;21.4;78
74458;SHT31;62896;51.032;3.712;2023-08-17T18:04:59;21.2;78
74458;SHT31;62896;51.032;3.712;2023-08-17T18:08:19;21.2;78
74458;SHT31;62896;51.032;3.712;2023-08-17T18:11:39;21.2;78
74458;SHT31;62896;51.032;3.712;2023-08-17T18:14:59;21;79
74458;SHT31;62896;51.032;3.712;2023-08-17T18:18:19;21;79
74458;SHT31;62896;51.032;3.712;2023-08-17T18:21:39;21;79
74458;SHT31;62896;51.032;3.712;2023-08-17T18:24:59;20.9;79
74458;SHT31;62896;51.032;3.712;2023-08-17T18:28:19;20.9;79
74458;SHT31;62896;51.032;3.712;2023-08-17T18:31:39;20.9;79
74458;SHT31;62896;51.032;3.712;2023-08-17T18:34:59;20.8;79
74458;SHT31;62896;51.032;3.712;2023-08-17T18:38:20;20.8;79
74458;SHT31;62896;51.032;3.712;2023-08-17T18:41:39;20.8;79
74458;SHT31;62896;51.032;3.712;2023-08-17T18:44:59;20.6;80
74458;SHT31;62896;51.032;3.712;2023-08-17T18:48:19;20.6;80
74458;SHT31;62896;51.032;3.712;2023-08-17T18:51:39;20.6;80
74458;SHT31;62896;51.032;3.712;2023-08-17T18:54:59;20.6;80
74458;SHT31;62896;51.032;3.712;2023-08-17T18:58:19;20.6;80
74458;SHT31;62896;51.032;3.712;2023-08-17T19:01:39;20.6;80
74458;SHT31;62896;51.032;3.712;2023-08-17T19:04:59;20.6;80
74458;SHT31;62896;51.032;3.712;2023-08-17T19:08:19;20.6;80
74458;SHT31;62896;51.032;3.712;2023-08-17T19:11:39;20.6;80
74458;SHT31;62896;51.032;3.712;2023-08-17T19:14:59;20.5;80
74458;SHT31;62896;51.032;3.712;2023-08-17T19:18:19;20.5;80
74458;SHT31;62896;51.032;3.712;2023-08-17T19:21:39;20.5;80
74458;SHT31;62896;51.032;3.712;2023-08-17T19:24:59;20.6;80
74458;SHT31;62896;51.032;3.712;2023-08-17T19:28:19;20.6;80
74458;SHT31;62896;51.032;3.712;2023-08-17T19:31:39;20.6;80
74458;SHT31;62896;51.032;3.712;2023-08-17T19:34:59;20.5;80
74458;SHT31;62896;51.032;3.712;2023-08-17T19:38:19;20.5;80
74458;SHT31;62896;51.032;3.712;2023-08-17T19:41:39;20.5;80
74458;SHT31;62896;51.032;3.712;2023-08-17T19:44:59;20.5;80
74458;SHT31;62896;51.032;3.712;2023-08-17T19:48:19;20.5;80
74458;SHT31;62896;51.032;3.712;2023-08-17T19:51:39;20.5;80
74458;SHT31;62896;51.032;3.712;2023-08-17T19:54:59;20.4;81
74458;SHT31;62896;51.032;3.712;2023-08-17T19:58:19;20.4;81
74458;SHT31;62896;51.032;3.712;2023-08-17T20:01:39;20.4;81
74458;SHT31;62896;51.032;3.712;2023-08-17T20:04:59;20.4;81
74458;SHT31;62896;51.032;3.712;2023-08-17T20:08:19;20.4;81
74458;SHT31;62896;51.032;3.712;2023-08-17T20:11:39;20.4;81
74458;SHT31;62896;51.032;3.712;2023-08-17T20:14:59;20.3;81
74458;SHT31;62896;51.032;3.712;2023-08-17T20:18:19;20.3;81
74458;SHT31;62896;51.032;3.712;2023-08-17T20:21:39;20.3;81
74458;SHT31;62896;51.032;3.712;2023-08-17T20:24:59;20.3;81
74458;SHT31;62896;51.032;3.712;2023-08-17T20:28:19;20.3;81
74458;SHT31;62896;51.032;3.712;2023-08-17T20:31:39;20.3;81
74458;SHT31;62896;51.032;3.712;2023-08-17T20:34:59;20.2;82
74458;SHT31;62896;51.032;3.712;2023-08-17T20:38:19;20.2;82
74458;SHT31;62896;51.032;3.712;2023-08-17T20:41:39;20.2;82
74458;SHT31;62896;51.032;3.712;2023-08-17T20:44:59;20.3;81
74458;SHT31;62896;51.032;3.712;2023-08-17T20:48:19;20.3;81
74458;SHT31;62896;51.032;3.712;2023-08-17T20:51:39;20.3;81
74458;SHT31;62896;51.032;3.712;2023-08-17T20:54:59;20.3;82
74458;SHT31;62896;51.032;3.712;2023-08-17T20:58:19;20.3;82
74458;SHT31;62896;51.032;3.712;2023-08-17T21:01:39;20.3;82
74458;SHT31;62896;51.032;3.712;2023-08-17T21:04:59;20.3;82
74458;SHT31;62896;51.032;3.712;2023-08-17T21:08:19;20.3;82
74458;SHT31;62896;51.032;3.712;2023-08-17T21:11:39;20.3;82
74458;SHT31;62896;51.032;3.712;2023-08-17T21:14:59;20.2;82
74458;SHT31;62896;51.032;3.712;2023-08-17T21:18:19;20.2;82
74458;SHT31;62896;51.032;3.712;2023-08-17T21:21:39;20.2;82
74458;SHT31;62896;51.032;3.712;2023-08-17T21:24:59;20.2;82
74458;SHT31;62896;51.032;3.712;2023-08-17T21:28:19;20.2;82
74458;SHT31;62896;51.032;3.712;2023-08-17T21:31:39;20.2;82
74458;SHT31;62896;51.032;3.712;2023-08-17T21:34:59;20.2;82
74458;SHT31;62896;51.032;3.712;2023-08-17T21:38:19;20.2;82
74458;SHT31;62896;51.032;3.712;2023-08-17T21:41:39;20.2;82
74458;SHT31;62896;51.032;3.712;2023-08-17T21:44:59;20.1;83
74458;SHT31;62896;51.032;3.712;2023-08-17T21:48:19;20.1;83
74458;SHT31;62896;51.032;3.712;2023-08-17T21:51:39;20.1;83
74458;SHT31;62896;51.032;3.712;2023-08-17T21:54:59;20.1;83
74458;SHT31;62896;51.032;3.712;2023-08-17T21:58:19;20.1;83
74458;SHT31;62896;51.032;3.712;2023-08-17T22:01:39;20.1;83
74458;SHT31;62896;51.032;3.712;2023-08-17T22:04:59;20;83
74458;SHT31;62896;51.032;3.712;2023-08-17T22:08:19;20;83
74458;SHT31;62896;51.032;3.712;2023-08-17T22:11:39;20;83
74458;SHT31;62896;51.032;3.712;2023-08-17T22:14:59;20;83
74458;SHT31;62896;51.032;3.712;2023-08-17T22:18:19;20;83
74458;SHT31;62896;51.032;3.712;2023-08-17T22:21:39;20;83
74458;SHT31;62896;51.032;3.712;2023-08-17T22:24:59;19.9;84
74458;SHT31;62896;51.032;3.712;2023-08-17T22:28:19;19.9;84
74458;SHT31;62896;51.032;3.712;2023-08-17T22:31:39;19.9;84